Impacts METAR Board
IDs:

KLGA - New York/La Guardia, NY, US

Updated at: 1800 UTC 02 Oct 2022
Potential Impact None Slight Moderate High
Time 02/06Z 02/07Z 02/08Z 02/09Z 02/10Z 02/11Z 02/12Z 02/13Z 02/14Z 02/15Z 02/16Z 02/17Z 02/18Z
Temp62 62 62 62 61 62 61 60 59 59 59 57 57
Dewpt49 50 49 44 45 46 48 49 50 49 48 48 47
Altim29.97 29.95 29.95 29.98 29.97 29.99 30.01 30.03 30.04 30.06 30.08 30.10 30.11
VIS10 10 10 10 10 10 10 10 8 7 8 5 7
CIG24 24 25 25 25 29 29 29 24 25 29 27 29
CoverOVCOVCOVCOVCOVCBKNBKNBKNOVCOVCOVCOVCOVC
FltCatMVFRMVFRMVFRMVFRMVFRMVFRMVFRMVFRMVFRMVFRMVFRMVFRMVFR
WX-----------------RA-----RA-RA
WDir50405050505050504050504040
WSpd21 21 22 25 24 25 26 24 22 26 20 13 16
WGst27 28 29 30 30 34 32 35 33 31 26 24 23
Raw hourly METARs
KLGA 020551Z 05021G27KT 10SM BKN024 OVC040 17/09 A2997 RMK AO2 PK WND 05027/0551 SLP147 60000 T01670094 10167 20156 55002
KLGA 020651Z 04021G28KT 10SM BKN024 OVC040 17/10 A2995 RMK AO2 PK WND 04031/0635 SLP143 T01670100
KLGA 020751Z 05022G29KT 10SM BKN025 OVC040 17/09 A2995 RMK AO2 PK WND 05029/0743 SLP143 T01670094
KLGA 020851Z 05025G30KT 10SM BKN025 OVC040 17/07 A2998 RMK AO2 PK WND 05030/0850 SLP153 T01670067 53005
KLGA 020951Z 05024G30KT 10SM BKN025 OVC040 16/07 A2997 RMK AO2 PK WND 05030/0947 RAB08E40 SLP150 P0000 T01610072
KLGA 021051Z 05025G34KT 10SM BKN029 BKN040 BKN140 BKN230 17/08 A2999 RMK AO2 PK WND 05036/1041 SLP155 T01670078
KLGA 021151Z 05026G32KT 10SM BKN029 BKN038 BKN050 BKN130 OVC230 16/09 A3001 RMK AO2 PK WND 06035/1057 SLP163 60000 70033 T01610089 10167 20156 53010
KLGA 021251Z 05024G35KT 10SM BKN029 BKN035 BKN050 BKN130 OVC230 16/09 A3003 RMK AO2 PK WND 06037/1239 SLP167 T01560094
KLGA 021351Z 04022G33KT 8SM -RA BKN024 BKN050 BKN130 OVC210 15/10 A3004 RMK AO2 PK WND 04036/1257 RAB18 SLP172 P0000 T01500100
KLGA 021451Z 05026G31KT 7SM BKN025 BKN050 BKN120 OVC170 15/09 A3006 RMK AO2 PK WND 05034/1433 RAE15B36E51 SLP178 P0000 60000 T01500094 53015
KLGA 021551Z 05020G26KT 8SM BKN029 BKN050 BKN140 OVC210 15/09 A3008 RMK AO2 PK WND 06030/1458 SLP185 T01500089
KLGA 021651Z 04013G24KT 5SM -RA BKN027 OVC032 14/09 A3010 RMK AO2 PK WND 04031/1607 RAB01 SLP193 P0001 T01390089
KLGA 021751Z 04016G23KT 7SM -RA BKN029 OVC035 14/08 A3011 RMK AO2 PK WND 04026/1655 SLP196 P0001 60002 T01390083 10161 20139 51019



Page loaded:  18:49 UTC  |   11:49 AM Pacific  |   12:49 PM Mountain  |   01:49 PM Central  |   02:49 PM Eastern

 

ADVISORIES

FORECASTS

FORECASTS

OBSERVATIONS

USER TOOLS

ABOUT US